Time;durP1;ratioP1;P1;durP2;ratioP2;P2;SDS_P1;SDS_P2;PMS_P1;PMS_P2;Temp;Humidity;BMP_temperature;BMP_pressure;BME280_temperature;BME280_humidity;BME280_pressure;Samples;Min_cycle;Max_cycle;Signal;HPM_P1;HPM_P2
2022/07/16 00:01:23;;;;;;;85.40;80.67;;;14.60;99.90;;;;;;5013211;28;20214;-80
2022/07/16 00:03:55;;;;;;;54.40;51.50;;;14.60;99.90;;;;;;5036655;28;20265;-81
2022/07/16 00:06:24;;;;;;;43.00;40.57;;;14.50;99.90;;;;;;5037091;28;20264;-80
2022/07/16 00:08:51;;;;;;;34.87;33.03;;;14.30;99.90;;;;;;5011262;28;20208;-78
2022/07/16 00:11:17;;;;;;;32.37;30.67;;;14.30;99.90;;;;;;5019084;28;20210;-78
2022/07/16 00:13:44;;;;;;;41.73;39.03;;;14.20;99.90;;;;;;5000504;28;20172;-78
2022/07/16 00:16:12;;;;;;;88.00;83.00;;;14.20;99.90;;;;;;4999623;28;20210;-79
2022/07/16 00:21:23;;;;;;;79.83;75.57;;;13.90;99.90;;;;;;5022649;28;20230;-78
2022/07/16 00:23:49;;;;;;;56.67;53.57;;;13.70;99.90;;;;;;5017924;28;20187;-78
2022/07/16 00:26:16;;;;;;;58.67;55.50;;;13.70;99.90;;;;;;5016944;28;20179;-78
2022/07/16 00:28:41;;;;;;;46.33;43.67;;;13.70;99.90;;;;;;5017707;28;20202;-77
2022/07/16 00:31:08;;;;;;;43.47;41.13;;;13.70;99.90;;;;;;5047348;28;20195;-77
2022/07/16 00:33:34;;;;;;;55.80;52.77;;;13.80;99.90;;;;;;5028551;28;20179;-80
2022/07/16 00:35:59;;;;;;;74.33;70.47;;;13.80;99.90;;;;;;5037269;28;20182;-77
2022/07/16 00:38:25;;;;;;;99.43;94.37;;;13.80;99.90;;;;;;5018268;28;20535;-79
2022/07/16 00:40:52;;;;;;;50.57;47.83;;;13.80;99.90;;;;;;5014072;28;20610;-79
2022/07/16 00:43:18;;;;;;;47.23;44.70;;;13.80;99.90;;;;;;4997851;28;20205;-79
2022/07/16 00:45:44;;;;;;;59.50;55.87;;;13.70;99.90;;;;;;5015800;28;20180;-79
2022/07/16 00:48:11;;;;;;;69.77;65.80;;;13.70;99.90;;;;;;5002235;28;20702;-79
2022/07/16 00:50:38;;;;;;;135.77;128.80;;;13.70;99.90;;;;;;5018900;28;20218;-77
2022/07/16 00:53:07;;;;;;;136.37;128.70;;;13.60;99.90;;;;;;5003563;28;20204;-78
2022/07/16 00:55:33;;;;;;;147.30;139.57;;;13.60;99.90;;;;;;5011141;28;20179;-80
2022/07/16 00:57:59;;;;;;;40.70;38.20;;;13.60;99.90;;;;;;5017313;28;20178;-79
2022/07/16 01:00:25;;;;;;;29.23;27.27;;;13.50;99.90;;;;;;5035137;28;20209;-79
2022/07/16 01:02:51;;;;;;;39.83;37.60;;;13.50;99.90;;;;;;5017761;28;20202;-79
2022/07/16 01:05:18;;;;;;;105.23;99.83;;;13.40;99.90;;;;;;5019246;28;20175;-79
2022/07/16 01:07:44;;;;;;;133.43;126.50;;;13.30;99.90;;;;;;5024618;28;20210;-78
2022/07/16 01:10:11;;;;;;;124.00;117.07;;;13.30;99.90;;;;;;5007367;28;20641;-78
2022/07/16 01:12:38;;;;;;;69.77;66.17;;;13.30;99.90;;;;;;5001873;28;20192;-79
2022/07/16 01:15:04;;;;;;;41.00;38.63;;;13.20;99.90;;;;;;5009883;28;20254;-79
2022/07/16 01:17:30;;;;;;;41.13;38.63;;;13.20;99.90;;;;;;5015694;28;20217;-79
2022/07/16 01:19:56;;;;;;;79.33;75.00;;;13.30;99.90;;;;;;5026622;28;20187;-78
2022/07/16 01:22:24;;;;;;;68.43;64.63;;;13.20;99.90;;;;;;5010479;28;20265;-79
2022/07/16 01:24:52;;;;;;;128.13;121.47;;;13.30;99.90;;;;;;4997082;28;20275;-79
2022/07/16 01:27:19;;;;;;;96.40;91.30;;;13.20;99.90;;;;;;4995736;28;20691;-79
2022/07/16 01:29:46;;;;;;;47.00;44.50;;;13.10;99.90;;;;;;4996775;28;20417;-79
2022/07/16 01:32:12;;;;;;;40.37;38.23;;;13.10;99.90;;;;;;4996439;28;20200;-79
2022/07/16 01:34:39;;;;;;;37.97;35.97;;;12.90;99.90;;;;;;4995641;28;20179;-79
2022/07/16 01:37:08;;;;;;;20.10;18.77;;;12.80;99.90;;;;;;5030441;28;20175;-79
2022/07/16 01:39:36;;;;;;;32.03;30.27;;;12.70;99.90;;;;;;4999945;28;20191;-79
2022/07/16 01:42:04;;;;;;;21.17;20.03;;;12.70;99.90;;;;;;5015751;28;20694;-79
2022/07/16 01:44:34;;;;;;;19.40;18.33;;;12.70;99.90;;;;;;5015629;28;20194;-79
2022/07/16 01:47:03;;;;;;;23.10;21.83;;;12.80;99.90;;;;;;5012906;28;20191;-79
2022/07/16 01:49:36;;;;;;;28.53;26.97;;;12.80;99.90;;;;;;5044829;28;20234;-79
2022/07/16 01:52:14;;;;;;;23.77;22.27;;;12.80;99.90;;;;;;5015476;28;20234;-79
2022/07/16 01:54:53;;;;;;;27.83;26.20;;;12.80;99.90;;;;;;5015869;28;20265;-79
2022/07/16 01:57:20;;;;;;;22.63;21.43;;;12.80;99.90;;;;;;5033831;28;20186;-79
2022/07/16 01:59:47;;;;;;;16.57;15.47;;;12.80;99.90;;;;;;5023385;28;20179;-79
2022/07/16 02:02:13;;;;;;;19.43;18.33;;;12.70;99.90;;;;;;5000880;28;20711;-79
2022/07/16 02:04:41;;;;;;;19.53;18.43;;;12.70;99.90;;;;;;5013118;28;20175;-79
2022/07/16 02:07:07;;;;;;;16.27;15.13;;;12.70;99.90;;;;;;4994770;28;20309;-79
2022/07/16 02:09:34;;;;;;;15.80;14.70;;;12.70;99.90;;;;;;4996338;28;20207;-80
2022/07/16 02:12:00;;;;;;;17.20;16.10;;;12.60;99.90;;;;;;5019137;28;20266;-78
2022/07/16 02:14:26;;;;;;;16.40;15.40;;;12.60;99.90;;;;;;5025769;28;20184;-79
2022/07/16 02:16:52;;;;;;;17.57;16.63;;;12.50;99.90;;;;;;5034334;28;20210;-79
2022/07/16 02:19:17;;;;;;;16.63;15.67;;;12.50;99.90;;;;;;5016775;28;20217;-79
2022/07/16 02:21:43;;;;;;;17.33;16.33;;;12.50;99.90;;;;;;5036502;23;20253;-79
2022/07/16 02:24:09;;;;;;;18.77;17.47;;;12.50;99.90;;;;;;5030697;28;20183;-79
2022/07/16 02:26:35;;;;;;;21.73;20.53;;;12.40;99.90;;;;;;5014548;28;20229;-79
2022/07/16 02:29:01;;;;;;;20.13;18.50;;;12.40;99.90;;;;;;5021086;28;20210;-79
2022/07/16 02:31:27;;;;;;;21.97;20.50;;;12.30;99.90;;;;;;5032914;28;20179;-79
2022/07/16 02:33:53;;;;;;;18.87;17.67;;;12.30;99.90;;;;;;5034432;28;20186;-80
2022/07/16 02:36:19;;;;;;;14.03;13.23;;;12.20;99.90;;;;;;5018586;28;20570;-79
2022/07/16 02:38:44;;;;;;;38.67;36.23;;;12.10;99.90;;;;;;5029721;28;20179;-79
2022/07/16 02:41:10;;;;;;;158.37;149.83;;;12.10;99.90;;;;;;5033644;28;20175;-79
2022/07/16 02:43:36;;;;;;;79.30;74.83;;;12.10;99.90;;;;;;5032639;28;20202;-78
2022/07/16 02:46:02;;;;;;;144.40;136.40;;;12.10;99.90;;;;;;5022141;28;20182;-79
2022/07/16 02:48:28;;;;;;;70.13;66.03;;;12.10;99.90;;;;;;5027553;28;20234;-79
2022/07/16 02:50:54;;;;;;;156.50;148.33;;;12.00;99.90;;;;;;5036772;28;20187;-78
2022/07/16 02:53:20;;;;;;;30.97;29.03;;;12.00;99.90;;;;;;5036308;28;20623;-79
2022/07/16 02:55:46;;;;;;;126.53;119.87;;;12.00;99.90;;;;;;5029763;28;20180;-79
2022/07/16 02:58:12;;;;;;;141.33;133.87;;;12.00;99.90;;;;;;5030784;28;20184;-80
2022/07/16 03:00:39;;;;;;;95.40;90.20;;;12.00;99.90;;;;;;5026550;28;20187;-79
2022/07/16 03:03:05;;;;;;;16.87;15.77;;;12.10;99.90;;;;;;5030792;28;20762;-78
2022/07/16 03:05:31;;;;;;;20.43;18.97;;;12.10;99.90;;;;;;5030253;28;20487;-80
2022/07/16 03:07:57;;;;;;;23.40;22.03;;;12.00;99.90;;;;;;5035338;28;20207;-78
2022/07/16 03:10:23;;;;;;;20.00;18.80;;;12.00;99.90;;;;;;5033316;28;20183;-78
2022/07/16 03:12:49;;;;;;;35.60;33.60;;;11.90;99.90;;;;;;5033583;28;20195;-78
2022/07/16 03:15:15;;;;;;;194.57;183.87;;;11.90;99.90;;;;;;5029467;28;20323;-78
2022/07/16 03:17:41;;;;;;;185.37;175.63;;;11.90;99.90;;;;;;5011888;28;20180;-78
2022/07/16 03:20:08;;;;;;;36.57;34.53;;;12.00;99.90;;;;;;5012576;28;20184;-78
2022/07/16 03:22:34;;;;;;;50.83;48.07;;;12.00;99.90;;;;;;5013680;28;20223;-78
2022/07/16 03:25:00;;;;;;;23.00;21.80;;;11.90;99.90;;;;;;5014081;28;20191;-78
2022/07/16 03:27:26;;;;;;;20.43;18.93;;;11.90;99.90;;;;;;5034810;28;20187;-78
2022/07/16 03:29:53;;;;;;;19.23;17.80;;;11.90;99.90;;;;;;5034251;28;20179;-76
2022/07/16 03:32:19;;;;;;;20.93;19.73;;;11.80;99.90;;;;;;5033396;28;20281;-76
2022/07/16 03:34:45;;;;;;;18.53;17.43;;;11.80;99.90;;;;;;5032294;28;20612;-77
2022/07/16 03:37:10;;;;;;;21.00;19.40;;;11.80;99.90;;;;;;5012184;28;20186;-77
2022/07/16 03:39:37;;;;;;;31.03;29.17;;;11.80;99.90;;;;;;5022300;28;20210;-78
2022/07/16 03:42:03;;;;;;;27.40;25.70;;;11.70;99.90;;;;;;5016961;28;20758;-78
2022/07/16 03:44:28;;;;;;;73.13;69.13;;;11.70;99.90;;;;;;5012686;28;20184;-76
2022/07/16 03:46:54;;;;;;;108.10;102.20;;;11.70;99.90;;;;;;5029207;28;20241;-77
2022/07/16 03:49:20;;;;;;;38.60;36.30;;;11.70;99.90;;;;;;5032073;28;20245;-77
2022/07/16 03:51:46;;;;;;;41.93;39.57;;;11.70;99.90;;;;;;5032927;28;20201;-76
2022/07/16 03:54:12;;;;;;;61.87;58.23;;;11.70;99.90;;;;;;5033042;28;20678;-77
2022/07/16 03:56:38;;;;;;;155.97;147.60;;;11.70;99.90;;;;;;5018951;28;20184;-76
2022/07/16 03:59:04;;;;;;;39.10;36.90;;;11.70;99.90;;;;;;5012789;28;20188;-77
2022/07/16 04:01:30;;;;;;;30.87;28.97;;;11.70;99.90;;;;;;5012332;28;20188;-77
2022/07/16 04:03:55;;;;;;;159.17;150.40;;;11.70;99.90;;;;;;5013042;28;20245;-77
2022/07/16 04:06:21;;;;;;;179.60;170.20;;;11.70;99.90;;;;;;5023734;28;20186;-76
2022/07/16 04:08:47;;;;;;;191.10;180.93;;;11.70;99.90;;;;;;5032074;28;20770;-77
2022/07/16 04:11:13;;;;;;;194.80;184.23;;;11.80;99.90;;;;;;5031954;28;20179;-77
2022/07/16 04:13:40;;;;;;;76.00;71.77;;;11.90;99.90;;;;;;5032566;28;20286;-77
2022/07/16 04:16:07;;;;;;;26.37;24.83;;;11.90;99.90;;;;;;5022315;28;20242;-76
2022/07/16 04:18:33;;;;;;;11.00;10.20;;;12.00;99.90;;;;;;5012194;28;20184;-76
2022/07/16 04:21:00;;;;;;;13.97;12.93;;;12.00;99.90;;;;;;5011860;28;20192;-77
2022/07/16 04:23:26;;;;;;;11.13;10.10;;;12.10;99.90;;;;;;5012516;28;20219;-77
2022/07/16 04:25:51;;;;;;;12.03;11.13;;;12.20;99.90;;;;;;5019704;28;20553;-77
2022/07/16 04:28:18;;;;;;;18.00;16.90;;;12.20;99.90;;;;;;5031868;28;20214;-69
2022/07/16 04:30:44;;;;;;;18.37;17.37;;;12.30;99.90;;;;;;5032513;28;20179;-69
2022/07/16 04:33:11;;;;;;;12.60;11.70;;;12.40;99.90;;;;;;5010782;28;20199;-69
2022/07/16 04:35:37;;;;;;;29.27;27.23;;;12.60;99.90;;;;;;5016795;28;20659;-69
2022/07/16 04:38:03;;;;;;;21.27;19.70;;;12.70;99.90;;;;;;5031328;28;20187;-69
2022/07/16 04:40:29;;;;;;;8.37;7.60;;;12.80;99.90;;;;;;5032757;28;20179;-69
2022/07/16 04:42:55;;;;;;;7.90;7.20;;;12.80;99.90;;;;;;5032779;28;20203;-70
2022/07/16 04:45:21;;;;;;;8.40;7.60;;;12.80;99.90;;;;;;5027920;28;20183;-69
2022/07/16 04:47:47;;;;;;;24.33;8.27;;;13.00;99.90;;;;;;5009295;28;20230;-69
2022/07/16 04:50:12;;;;;;;19.47;8.27;;;13.10;99.90;;;;;;5012709;28;20198;-69
2022/07/16 04:52:38;;;;;;;16.27;8.70;;;13.20;99.90;;;;;;5010804;28;20246;-69
2022/07/16 04:55:05;;;;;;;19.43;9.53;;;13.30;99.90;;;;;;5011295;28;20275;-69
2022/07/16 04:57:31;;;;;;;82.23;77.50;;;13.40;99.90;;;;;;5030492;28;20185;-69
2022/07/16 04:59:57;;;;;;;143.33;134.77;;;13.50;99.90;;;;;;5031682;28;20217;-69
2022/07/16 05:05:08;;;;;;;21.03;19.50;;;13.80;99.90;;;;;;5031035;28;20717;-69
2022/07/16 05:07:34;;;;;;;39.47;37.33;;;13.90;99.90;;;;;;5010999;28;20179;-70
2022/07/16 05:10:00;;;;;;;29.07;27.20;;;14.10;99.90;;;;;;5009830;28;20553;-70
2022/07/16 05:12:26;;;;;;;99.80;94.67;;;14.40;99.90;;;;;;5011249;28;20737;-70
2022/07/16 05:14:52;;;;;;;24.00;22.43;;;14.80;99.90;;;;;;5011889;28;20199;-70
2022/07/16 05:17:18;;;;;;;8.80;8.10;;;15.20;99.90;;;;;;5014105;28;20175;-70
2022/07/16 05:19:44;;;;;;;10.60;9.73;;;15.80;99.90;;;;;;5010526;28;20621;-70
2022/07/16 05:22:09;;;;;;;38.17;35.93;;;16.40;99.90;;;;;;5013422;28;20218;-70
2022/07/16 05:24:36;;;;;;;103.67;98.47;;;17.00;99.90;;;;;;5010815;28;20597;-70
2022/07/16 05:27:02;;;;;;;57.67;54.37;;;17.50;99.90;;;;;;5010739;28;20176;-70
2022/07/16 05:29:28;;;;;;;26.30;24.97;;;18.10;99.90;;;;;;5011037;28;20651;-71
2022/07/16 05:31:54;;;;;;;13.27;12.37;;;18.40;99.90;;;;;;5010598;28;20290;-70
2022/07/16 05:34:20;;;;;;;8.07;7.50;;;18.60;99.90;;;;;;5011428;28;20644;-70
2022/07/16 05:36:46;;;;;;;7.88;7.28;;;19.00;99.90;;;;;;5013546;28;20183;-69
2022/07/16 05:39:12;;;;;;;8.93;8.33;;;19.20;99.90;;;;;;5016383;28;20210;-70
2022/07/16 05:41:38;;;;;;;9.10;8.50;;;19.20;99.90;;;;;;5011248;28;20184;-69
2022/07/16 05:44:04;;;;;;;7.70;7.10;;;19.30;99.90;;;;;;5010764;28;20176;-69
2022/07/16 05:46:30;;;;;;;10.02;8.07;;;19.30;99.90;;;;;;5010698;28;20662;-69
2022/07/16 05:48:55;;;;;;;17.48;16.38;;;19.40;99.90;;;;;;5009900;28;20612;-69
2022/07/16 05:51:21;;;;;;;14.63;13.52;;;19.70;99.90;;;;;;5011397;28;20233;-71
2022/07/16 05:53:47;;;;;;;18.50;17.40;;;20.30;99.90;;;;;;5010051;28;20676;-70
2022/07/16 05:56:13;;;;;;;13.93;13.20;;;20.60;99.90;;;;;;5011635;28;20183;-70
2022/07/16 05:58:39;;;;;;;12.35;11.75;;;20.80;99.90;;;;;;5010450;28;20215;-70
2022/07/16 06:01:05;;;;;;;10.93;6.88;;;20.80;99.90;;;;;;5010591;28;20215;-70
2022/07/16 06:03:31;;;;;;;7.35;6.13;;;20.90;99.90;;;;;;5026485;28;20219;-70
2022/07/16 06:05:57;;;;;;;6.85;6.35;;;21.20;99.90;;;;;;5026030;28;20258;-70
2022/07/16 06:08:23;;;;;;;7.35;6.63;;;21.30;99.90;;;;;;5009245;28;20215;-70
2022/07/16 06:10:48;;;;;;;7.57;6.90;;;21.00;99.90;;;;;;5011314;28;20211;-69
2022/07/16 06:13:14;;;;;;;8.48;7.80;;;21.50;99.90;;;;;;5010864;28;20278;-71
2022/07/16 06:15:40;;;;;;;8.23;7.50;;;22.00;99.70;;;;;;5010244;28;20202;-70
2022/07/16 06:18:06;;;;;;;8.57;7.88;;;22.00;98.70;;;;;;5010321;28;20886;-70
2022/07/16 06:20:32;;;;;;;9.07;8.05;;;21.70;98.80;;;;;;5011054;28;20183;-70
2022/07/16 06:22:59;;;;;;;10.65;9.90;;;21.90;98.70;;;;;;5009746;28;20237;-70
2022/07/16 06:25:26;;;;;;;10.27;9.38;;;22.50;97.70;;;;;;5028338;28;20191;-70
2022/07/16 06:27:52;;;;;;;9.40;8.88;;;23.10;96.60;;;;;;5015415;28;20214;-69
2022/07/16 06:30:18;;;;;;;8.50;7.68;;;23.60;94.90;;;;;;5030323;28;20596;-69
2022/07/16 06:32:44;;;;;;;10.43;9.45;;;23.60;93.90;;;;;;5014303;28;20261;-69
2022/07/16 06:35:12;;;;;;;8.52;7.70;;;23.30;94.30;;;;;;5014496;28;20648;-69
2022/07/16 06:37:38;;;;;;;8.00;7.50;;;23.50;93.60;;;;;;5015194;28;20199;-79
2022/07/16 06:40:05;;;;;;;6.40;5.90;;;23.50;93.20;;;;;;5016868;28;20176;-78
2022/07/16 06:42:30;;;;;;;6.63;6.00;;;23.60;94.30;;;;;;5026647;28;20211;-78
2022/07/16 06:44:56;;;;;;;8.30;6.18;;;24.30;92.30;;;;;;5017274;28;20179;-78
2022/07/16 06:47:22;;;;;;;9.88;8.45;;;24.90;91.40;;;;;;5017978;28;20214;-77
2022/07/16 06:49:48;;;;;;;9.02;8.35;;;25.30;90.50;;;;;;5023016;28;20211;-78
2022/07/16 06:52:14;;;;;;;8.02;7.53;;;25.10;88.70;;;;;;5016066;28;20694;-78
2022/07/16 06:54:39;;;;;;;8.27;7.53;;;25.10;88.40;;;;;;5015181;28;20172;-78
2022/07/16 06:57:05;;;;;;;7.03;6.55;;;25.30;87.50;;;;;;5016056;28;20188;-78
2022/07/16 06:59:31;;;;;;;6.43;6.03;;;25.70;86.70;;;;;;5017049;28;20175;-78
2022/07/16 07:01:57;;;;;;;7.00;6.60;;;26.10;85.50;;;;;;5016686;28;20258;-78
2022/07/16 07:04:23;;;;;;;7.32;6.75;;;26.30;82.70;;;;;;5015380;28;20198;-78
2022/07/16 07:06:50;;;;;;;5.35;4.85;;;26.30;81.30;;;;;;5014987;28;20207;-78
2022/07/16 07:09:15;;;;;;;5.55;5.22;;;26.70;80.40;;;;;;5016693;28;20268;-78
2022/07/16 07:11:42;;;;;;;5.90;5.40;;;26.30;78.90;;;;;;5017248;28;20210;-78
2022/07/16 07:14:09;;;;;;;5.90;5.28;;;26.40;79.40;;;;;;5017530;28;20187;-78
2022/07/16 07:16:35;;;;;;;5.57;5.07;;;26.70;77.60;;;;;;5016685;28;20648;-78
2022/07/16 07:19:01;;;;;;;5.68;5.05;;;26.80;77.50;;;;;;5020431;28;20186;-77
2022/07/16 07:21:27;;;;;;;5.28;4.80;;;26.80;77.50;;;;;;5028817;28;20191;-77
2022/07/16 07:23:53;;;;;;;6.07;5.63;;;26.90;75.90;;;;;;5027031;28;20183;-78
2022/07/16 07:26:19;;;;;;;6.90;5.65;;;26.60;75.30;;;;;;5016785;28;20630;-78
2022/07/16 07:28:45;;;;;;;6.20;5.80;;;26.80;75.70;;;;;;5030834;28;20243;-78
2022/07/16 07:31:11;;;;;;;6.88;6.28;;;26.70;74.70;;;;;;5032393;28;20195;-78
2022/07/16 07:33:38;;;;;;;7.93;7.38;;;27.10;75.50;;;;;;5016640;28;20206;-78
2022/07/16 07:36:04;;;;;;;7.68;7.18;;;27.30;73.70;;;;;;5014379;28;20191;-78
2022/07/16 07:38:30;;;;;;;6.75;6.25;;;27.20;74.00;;;;;;5015000;28;20207;-78
2022/07/16 07:40:56;;;;;;;8.23;5.25;;;27.00;74.60;;;;;;5010914;28;20192;-78
2022/07/16 07:43:22;;;;;;;8.70;8.05;;;27.00;73.40;;;;;;5019670;28;20208;-77
2022/07/16 07:45:48;;;;;;;6.57;6.10;;;27.30;72.20;;;;;;5017870;28;20559;-77
2022/07/16 07:48:13;;;;;;;9.68;8.80;;;27.30;70.00;;;;;;5013468;28;20196;-78
2022/07/16 07:50:40;;;;;;;8.75;7.55;;;27.30;71.90;;;;;;5013298;28;20179;-77
2022/07/16 07:53:06;;;;;;;8.27;6.03;;;27.30;70.00;;;;;;5013751;28;20196;-77
2022/07/16 07:55:32;;;;;;;6.53;6.13;;;27.10;69.60;;;;;;5029115;28;20291;-78
2022/07/16 07:57:58;;;;;;;6.88;6.32;;;26.60;70.60;;;;;;5014824;28;20302;-79
2022/07/16 08:00:25;;;;;;;6.32;5.75;;;26.80;73.40;;;;;;5015010;28;20196;-78
2022/07/16 08:02:51;;;;;;;11.65;8.00;;;27.60;69.90;;;;;;5014719;28;20322;-78
2022/07/16 08:05:17;;;;;;;7.50;7.10;;;28.00;68.50;;;;;;5017534;28;20187;-77
2022/07/16 08:07:44;;;;;;;7.40;6.78;;;28.10;68.70;;;;;;5017613;28;20195;-77
2022/07/16 08:10:11;;;;;;;7.00;6.50;;;27.90;66.50;;;;;;5031080;28;20184;-76
2022/07/16 08:12:38;;;;;;;8.50;7.47;;;27.50;67.10;;;;;;5043167;28;20207;-77
2022/07/16 08:15:05;;;;;;;7.32;6.93;;;27.90;67.30;;;;;;5017407;28;20184;-77
2022/07/16 08:17:31;;;;;;;7.55;7.05;;;27.90;65.20;;;;;;5031497;28;20191;-77
2022/07/16 08:19:57;;;;;;;9.93;8.77;;;28.10;63.70;;;;;;5015329;28;20187;-77
2022/07/16 08:22:23;;;;;;;16.50;15.40;;;28.10;64.00;;;;;;5038664;22;20255;-77
2022/07/16 08:27:33;;;;;;;24.17;22.25;;;28.30;59.90;;;;;;5012487;28;20722;-78
2022/07/16 08:29:59;;;;;;;25.05;23.40;;;27.90;58.90;;;;;;5013505;28;20184;-78
2022/07/16 08:32:25;;;;;;;19.73;18.58;;;27.50;57.70;;;;;;5013576;28;20287;-78
2022/07/16 08:34:51;;;;;;;12.82;12.10;;;27.70;57.10;;;;;;5012946;28;20223;-78
2022/07/16 08:37:35;;;;;;;7.95;7.45;;;27.50;57.90;;;;;;5015079;28;20183;-77
2022/07/16 08:40:05;;;;;;;7.60;7.10;;;27.30;59.20;;;;;;5020867;28;20221;-77
2022/07/16 08:42:32;;;;;;;7.05;6.60;;;27.20;59.40;;;;;;5020570;28;20214;-77
2022/07/16 08:44:59;;;;;;;7.28;6.50;;;27.30;57.50;;;;;;5019542;28;20187;-77
2022/07/16 08:47:26;;;;;;;9.38;8.57;;;27.70;58.80;;;;;;5029885;28;20180;-77
2022/07/16 08:49:52;;;;;;;11.88;10.80;;;28.00;56.70;;;;;;5013272;28;20215;-80
2022/07/16 08:52:20;;;;;;;14.48;13.27;;;27.40;57.80;;;;;;5014307;28;20195;-79
2022/07/16 08:54:47;;;;;;;11.27;10.27;;;27.30;57.60;;;;;;5014346;28;20262;-79
2022/07/16 08:57:15;;;;;;;9.43;8.43;;;27.20;58.10;;;;;;5014712;28;20271;-79
2022/07/16 08:59:41;;;;;;;7.22;6.72;;;27.40;58.50;;;;;;5013473;28;20211;-79
2022/07/16 09:02:07;;;;;;;6.82;6.22;;;27.30;56.70;;;;;;5012574;28;20271;-76
2022/07/16 09:04:33;;;;;;;5.97;4.75;;;26.90;57.60;;;;;;5012061;28;20211;-78
2022/07/16 09:06:58;;;;;;;6.28;5.88;;;27.20;57.60;;;;;;5012511;28;20686;-77
2022/07/16 09:09:24;;;;;;;6.63;6.22;;;27.80;56.80;;;;;;5013000;28;20253;-78
2022/07/16 09:11:50;;;;;;;7.18;6.70;;;27.70;56.00;;;;;;5013529;28;20237;-77
2022/07/16 09:14:18;;;;;;;5.30;5.00;;;27.60;55.40;;;;;;5013329;28;20180;-78
2022/07/16 09:16:48;;;;;;;8.43;7.93;;;27.90;57.00;;;;;;5012999;28;20659;-78
2022/07/16 09:19:17;;;;;;;9.43;8.95;;;28.30;54.60;;;;;;5011951;28;20526;-78
2022/07/16 09:22:00;;;;;;;11.77;10.93;;;28.30;54.10;;;;;;5011078;28;20187;-78
2022/07/16 09:24:43;;;;;;;16.63;15.63;;;28.60;53.10;;;;;;4992586;28;20188;-77
2022/07/16 09:27:24;;;;;;;16.15;15.35;;;28.60;52.30;;;;;;4993054;28;20188;-78
2022/07/16 09:29:54;;;;;;;10.52;9.82;;;28.30;52.90;;;;;;4993682;28;20275;-78
2022/07/16 09:32:39;;;;;;;16.63;15.45;;;28.20;53.80;;;;;;4997548;28;20210;-79
2022/07/16 09:35:09;;;;;;;17.88;16.95;;;28.80;53.60;;;;;;5012675;28;20183;-77
2022/07/16 09:37:59;;;;;;;25.65;24.15;;;29.00;52.50;;;;;;5010351;28;20187;-77
2022/07/16 09:40:34;;;;;;;29.58;28.08;;;29.40;51.90;;;;;;5021183;28;20184;-78
2022/07/16 09:43:10;;;;;;;35.58;33.78;;;29.40;51.50;;;;;;5015405;28;20218;-78
2022/07/16 09:45:39;;;;;;;62.35;59.33;;;29.20;52.20;;;;;;5012579;28;20179;-78
2022/07/16 09:48:18;;;;;;;61.58;58.15;;;29.10;51.30;;;;;;5011286;28;20547;-78
2022/07/16 09:50:45;;;;;;;43.85;41.05;;;28.60;51.90;;;;;;5011879;28;20226;-79
2022/07/16 09:53:15;;;;;;;48.92;46.10;;;28.90;52.90;;;;;;5020926;28;20278;-76
2022/07/16 09:56:01;;;;;;;44.38;41.92;;;28.70;52.50;;;;;;5020925;28;20184;-78
2022/07/16 09:58:27;;;;;;;77.25;73.45;;;28.80;52.30;;;;;;5030548;28;20208;-76
2022/07/16 10:00:54;;;;;;;51.22;48.63;;;29.20;49.00;;;;;;5020483;28;20183;-77
2022/07/16 10:03:20;;;;;;;63.22;60.05;;;28.70;51.10;;;;;;5017189;28;20204;-78
2022/07/16 10:05:46;;;;;;;67.10;63.58;;;28.60;50.40;;;;;;5015547;28;20306;-79
2022/07/16 10:08:14;;;;;;;60.30;56.85;;;28.20;49.70;;;;;;5015785;28;20241;-77
2022/07/16 10:10:40;;;;;;;40.83;38.60;;;27.70;50.70;;;;;;5015660;28;20210;-79
2022/07/16 10:13:07;;;;;;;32.38;30.58;;;27.50;50.40;;;;;;5014749;28;20682;-78
2022/07/16 10:15:33;;;;;;;44.15;41.78;;;27.80;51.40;;;;;;5018624;28;20230;-78
2022/07/16 10:17:59;;;;;;;42.95;40.55;;;28.30;50.50;;;;;;5015410;28;20573;-78
2022/07/16 10:20:25;;;;;;;44.78;42.35;;;28.30;50.60;;;;;;5014578;28;20219;-77
2022/07/16 10:22:52;;;;;;;63.67;60.63;;;28.70;50.40;;;;;;5015181;28;20624;-77
2022/07/16 10:25:22;;;;;;;89.55;85.20;;;28.90;50.30;;;;;;5015944;28;20186;-77
2022/07/16 10:27:48;;;;;;;98.10;93.43;;;28.70;48.60;;;;;;5013687;28;20202;-78
2022/07/16 10:30:29;;;;;;;113.63;108.25;;;28.90;48.70;;;;;;5014692;28;20176;-78
2022/07/16 10:33:07;;;;;;;122.78;116.82;;;29.20;47.50;;;;;;5015315;28;20211;-78
2022/07/16 10:35:40;;;;;;;143.20;136.23;;;29.50;48.70;;;;;;5016091;28;20211;-78
2022/07/16 10:38:11;;;;;;;118.82;113.05;;;30.00;47.90;;;;;;5015428;28;20195;-79
2022/07/16 10:40:39;;;;;;;146.15;138.98;;;29.60;47.60;;;;;;5020550;28;20179;-80
2022/07/16 10:43:21;;;;;;;149.45;141.88;;;29.40;48.20;;;;;;5018229;28;20196;-80
2022/07/16 10:46:04;;;;;;;140.52;133.73;;;29.80;48.60;;;;;;5018309;28;20237;-80
2022/07/16 10:48:37;;;;;;;114.82;109.35;;;30.70;47.90;;;;;;5017551;28;20218;-79
2022/07/16 10:51:18;;;;;;;97.97;93.28;;;31.20;45.40;;;;;;5022375;28;20184;-79
2022/07/16 10:53:56;;;;;;;92.40;87.93;;;31.20;44.20;;;;;;5023821;28;20226;-79
2022/07/16 10:56:35;;;;;;;94.03;89.57;;;31.60;43.30;;;;;;5022801;28;20184;-80
2022/07/16 10:59:07;;;;;;;85.30;81.15;;;32.10;42.10;;;;;;5017319;28;20218;-80
2022/07/16 11:01:35;;;;;;;136.43;129.60;;;32.10;42.50;;;;;;5017805;28;20199;-80
2022/07/16 11:04:02;;;;;;;118.10;112.30;;;31.20;42.70;;;;;;5016161;28;20199;-80
2022/07/16 11:06:30;;;;;;;100.80;95.63;;;30.50;43.50;;;;;;5016054;28;20199;-79
2022/07/16 11:08:57;;;;;;;114.28;108.90;;;30.30;44.40;;;;;;5031655;28;20211;-80
2022/07/16 11:11:30;;;;;;;89.28;85.00;;;30.20;43.40;;;;;;5016263;28;20183;-80
2022/07/16 11:13:56;;;;;;;103.65;98.65;;;30.00;44.00;;;;;;5022775;28;20199;-79
2022/07/16 11:16:22;;;;;;;98.40;93.60;;;30.50;42.60;;;;;;5017907;28;20183;-81
2022/07/16 11:18:51;;;;;;;129.07;122.88;;;31.00;43.00;;;;;;5014651;28;20275;-80
2022/07/16 11:21:17;;;;;;;130.98;124.53;;;31.50;42.70;;;;;;5016502;28;20278;-80
2022/07/16 11:23:56;;;;;;;137.77;131.15;;;32.10;41.50;;;;;;5014696;28;20227;-80
2022/07/16 11:26:23;;;;;;;86.25;82.05;;;32.60;41.50;;;;;;5031505;28;20531;-80
2022/07/16 11:29:03;;;;;;;84.43;80.30;;;32.70;40.20;;;;;;5015456;28;20207;-80
2022/07/16 11:31:30;;;;;;;80.80;76.75;;;32.70;39.90;;;;;;5014809;28;20190;-79
2022/07/16 11:34:02;;;;;;;55.33;52.67;;;32.70;40.50;;;;;;5014997;28;20695;-81
2022/07/16 11:36:31;;;;;;;43.72;41.58;;;31.80;39.80;;;;;;5016044;28;20187;-80
2022/07/16 11:39:05;;;;;;;39.90;37.92;;;31.70;39.80;;;;;;5013512;28;20180;-80
2022/07/16 11:41:34;;;;;;;28.88;27.38;;;32.20;39.00;;;;;;5015345;28;20538;-80
2022/07/16 11:44:23;;;;;;;41.15;39.05;;;32.60;38.70;;;;;;5014992;28;20203;-81
2022/07/16 11:47:00;;;;;;;34.20;32.38;;;32.50;38.90;;;;;;5017931;28;20187;-80
2022/07/16 11:49:36;;;;;;;56.75;54.03;;;31.40;39.30;;;;;;5018864;28;20257;-81
2022/07/16 11:52:04;;;;;;;54.95;52.10;;;31.50;39.80;;;;;;5015488;28;20187;-80
2022/07/16 11:54:38;;;;;;;47.80;45.38;;;31.70;39.70;;;;;;5016302;28;20231;-80
2022/07/16 11:57:08;;;;;;;89.70;85.07;;;31.60;39.50;;;;;;5020922;28;20186;-79
2022/07/16 11:59:34;;;;;;;97.20;92.47;;;31.20;40.80;;;;;;5028033;28;20191;-78
2022/07/16 12:02:05;;;;;;;112.32;107.00;;;31.10;40.90;;;;;;5026588;28;20206;-79
2022/07/16 12:04:42;;;;;;;74.43;70.75;;;32.00;40.60;;;;;;5014558;28;20184;-80
2022/07/16 12:07:28;;;;;;;64.30;61.20;;;32.10;39.30;;;;;;5018053;28;20652;-79
2022/07/16 12:09:57;;;;;;;64.70;61.58;;;32.60;40.00;;;;;;5024439;28;20214;-80
2022/07/16 12:12:26;;;;;;;37.85;36.05;;;33.20;39.90;;;;;;5022642;28;20196;-79
2022/07/16 12:14:57;;;;;;;14.27;13.57;;;33.80;39.30;;;;;;5031076;28;20200;-80
2022/07/16 12:17:38;;;;;;;10.48;10.02;;;34.30;38.20;;;;;;5015606;28;20194;-80
2022/07/16 12:20:14;;;;;;;8.15;7.50;;;34.10;38.60;;;;;;5015440;28;20198;-80
2022/07/16 12:22:49;;;;;;;5.70;5.45;;;34.30;38.90;;;;;;5014323;28;20215;-78
2022/07/16 12:25:26;;;;;;;5.75;5.45;;;33.80;38.20;;;;;;5011425;28;20258;-80
2022/07/16 12:28:08;;;;;;;11.48;10.73;;;33.40;38.60;;;;;;4995380;28;20195;-79
2022/07/16 12:30:39;;;;;;;27.55;26.02;;;32.80;39.30;;;;;;4996019;28;20259;-80
2022/07/16 12:33:16;;;;;;;28.70;27.23;;;32.40;40.60;;;;;;4999962;28;20192;-79
2022/07/16 12:36:05;;;;;;;12.48;11.88;;;33.10;40.10;;;;;;5014275;28;20180;-80
2022/07/16 12:38:39;;;;;;;6.55;5.95;;;33.90;38.80;;;;;;5014389;28;20188;-80
2022/07/16 12:41:08;;;;;;;7.68;7.32;;;34.20;38.30;;;;;;5014243;28;20318;-80
2022/07/16 12:43:34;;;;;;;6.68;6.28;;;34.00;38.90;;;;;;5014543;28;20231;-78